14 sierpnia 2022

Czas Kod Pogoda Temp. Widoczność Sufit Wiatr METAR/SPECI
01:20
V
22 °C 10 km+ - 070° 070° 3 kt METAR EDLV 132320Z AUTO 07003KT 030V100 9999 // NCD 22/12 Q1012
00:50
V
23 °C 10 km+ - Var Var 2 kt METAR EDLV 132250Z AUTO VRB02KT 9999 // NCD 23/12 Q1012
00:20
V
23 °C 10 km+ - 030° 030° 3 kt METAR EDLV 132220Z AUTO 03003KT 9999 // NCD 23/12 Q1013

13 sierpnia 2022

Czas Kod Pogoda Temp. Widoczność Sufit Wiatr METAR/SPECI
23:50
V
24 °C 10 km+ - Var Var 2 kt METAR EDLV 132150Z AUTO VRB02KT 9999 // NCD 24/12 Q1013
23:20
V
24 °C 10 km+ - 030° 030° 2 kt METAR EDLV 132120Z 03002KT CAVOK 24/12 Q1013
22:50
V
25 °C 10 km+ - 030° 030° 2 kt METAR EDLV 132050Z 03002KT CAVOK 25/12 Q1013
22:20
V
25 °C 10 km+ - 040° 040° 2 kt METAR EDLV 132020Z 04002KT CAVOK 25/12 Q1013
21:50
V
26 °C 10 km+ - 040° 040° 2 kt METAR EDLV 131950Z 04002KT CAVOK 26/11 Q1013
21:20
V
27 °C 10 km+ - 040° 040° 2 kt METAR EDLV 131920Z 04002KT CAVOK 27/11 Q1013
20:50
V
29 °C 10 km+ - Var Var 2 kt METAR EDLV 131850Z VRB02KT CAVOK 29/10 Q1013
20:20
V
30 °C 10 km+ - Var Var 2 kt METAR EDLV 131820Z VRB02KT CAVOK 30/10 Q1013
19:50
V
30 °C 10 km+ - 060° 060° 3 kt METAR EDLV 131750Z 06003KT 360V140 CAVOK 30/09 Q1013
19:20
V
31 °C 10 km+ - 080° 080° 5 kt METAR EDLV 131720Z 08005KT 020V130 CAVOK 31/09 Q1013
18:50
V
31 °C 10 km+ - Var Var 4 kt METAR EDLV 131650Z VRB04KT CAVOK 31/09 Q1013
18:20
V
31 °C 10 km+ - 060° 060° 4 kt METAR EDLV 131620Z 06004KT 350V130 CAVOK 31/09 Q1013
17:50
V
31 °C 10 km+ - 090° 090° 5 kt METAR EDLV 131550Z 09005KT 360V150 CAVOK 31/08 Q1014
17:20
V
31 °C 10 km+ - 110° 110° 7 kt METAR EDLV 131520Z 11007KT 020V160 CAVOK 31/08 Q1014
16:50
V
31 °C 10 km+ - 130° 130° 8 kt METAR EDLV 131450Z 13008KT 080V200 CAVOK 31/08 Q1014
16:20
V
31 °C 10 km+ - 120° 120° 6 kt METAR EDLV 131420Z 12006KT 030V190 CAVOK 31/07 Q1015
15:50
V
31 °C 10 km+ - Var Var 4 kt METAR EDLV 131350Z VRB04KT CAVOK 31/08 Q1015
15:20
V
31 °C 10 km+ - 080° 080° 6 kt METAR EDLV 131320Z 08006KT 010V160 CAVOK 31/08 Q1015
14:50
V
31 °C 10 km+ - Var Var 5 kt METAR EDLV 131250Z VRB05KT CAVOK 31/09 Q1016
14:20
V
31 °C 10 km+ - 020° 020° 6 kt METAR EDLV 131220Z 02006KT 300V080 CAVOK 31/09 Q1016
13:50
V
31 °C 10 km+ - Var Var 6 - 18 kt METAR EDLV 131150Z VRB06G18KT CAVOK 31/10 Q1016
13:20
V
31 °C 10 km+ - 150° 150° 5 kt METAR EDLV 131120Z 15005KT 090V220 CAVOK 31/09 Q1016
12:50
V
31 °C 10 km+ - 150° 150° 8 kt METAR EDLV 131050Z 15008KT 090V200 CAVOK 31/10 Q1016
12:20
V
30 °C 10 km+ - 130° 130° 8 kt METAR EDLV 131020Z 13008KT 070V170 CAVOK 30/10 Q1017
11:50
V
29 °C 10 km+ - 150° 150° 6 kt METAR EDLV 130950Z 15006KT 090V220 CAVOK 29/10 Q1017
11:20
V
28 °C 10 km+ - 130° 130° 5 kt METAR EDLV 130920Z 13005KT 080V240 CAVOK 28/11 Q1017
10:50
V
27 °C 10 km+ - 130° 130° 5 kt METAR EDLV 130850Z 13005KT 070V180 CAVOK 27/11 Q1017
10:20
V
26 °C 10 km+ - 130° 130° 6 kt METAR EDLV 130820Z 13006KT 070V170 CAVOK 26/11 Q1017
09:50
V
25 °C 10 km+ - 130° 130° 6 kt METAR EDLV 130750Z 13006KT 090V160 CAVOK 25/11 Q1017
09:20
V
24 °C 10 km+ - 110° 110° 5 kt METAR EDLV 130720Z 11005KT CAVOK 24/10 Q1017
08:50
V
22 °C 10 km+ - 110° 110° 5 kt METAR EDLV 130650Z 11005KT 070V140 CAVOK 22/11 Q1017
08:20
V
21 °C 10 km+ - 100° 100° 3 kt METAR EDLV 130620Z 10003KT 060V150 CAVOK 21/11 Q1017
07:50
V
19 °C 10 km+ - Var Var 2 kt METAR EDLV 130550Z VRB02KT CAVOK 19/11 Q1017
07:20
V
19 °C 10 km+ - Var Var 2 kt METAR EDLV 130520Z VRB02KT CAVOK 19/10 Q1017
06:50
V
17 °C 10 km+ - Var 000° 0 kt METAR EDLV 130450Z 00000KT CAVOK 17/10 Q1017
06:20
V
18 °C 10 km+ - Var Var 2 kt METAR EDLV 130420Z VRB02KT CAVOK 18/09 Q1017
05:50
V
19 °C 10 km+ - 090° 090° 3 kt METAR EDLV 130350Z 09003KT 050V130 CAVOK 19/09 Q1017
05:20
V
19 °C 10 km+ - 090° 090° 3 kt METAR EDLV 130320Z 09003KT 050V130 CAVOK 19/09 Q1017
04:50
V
19 °C 10 km+ - 090° 090° 3 kt METAR EDLV 130250Z 09003KT 040V140 CAVOK 19/09 Q1017
04:20
V
19 °C 10 km+ - 090° 090° 3 kt METAR EDLV 130220Z AUTO 09003KT 060V120 9999 // NCD 19/09 Q1017
03:50
V
18 °C 10 km+ - 090° 090° 3 kt METAR EDLV 130150Z AUTO 09003KT 050V130 9999 // NCD 18/08 Q1017
03:20
V
19 °C 10 km+ - 090° 090° 3 kt METAR EDLV 130120Z AUTO 09003KT 040V120 9999 // NCD 19/09 Q1017
02:50
V
20 °C 10 km+ - 090° 090° 3 kt METAR EDLV 130050Z AUTO 09003KT 9999 // NCD 20/09 Q1017
02:20
V
20 °C 10 km+ - 100° 100° 3 kt METAR EDLV 130020Z AUTO 10003KT 070V130 9999 // NCD 20/09 Q1017
01:50
V
20 °C 10 km+ - 090° 090° 3 kt METAR EDLV 122350Z AUTO 09003KT 9999 // NCD 20/09 Q1017
01:20
V
21 °C 10 km+ - 090° 090° 3 kt METAR EDLV 122320Z AUTO 09003KT 9999 // NCD 21/09 Q1017
00:50
V
21 °C 10 km+ - 090° 090° 3 kt METAR EDLV 122250Z AUTO 09003KT 050V110 9999 // NCD 21/09 Q1017
00:20
V
19 °C 10 km+ - 080° 080° 3 kt METAR EDLV 122220Z AUTO 08003KT 050V120 9999 // NCD 19/09 Q1017

12 sierpnia 2022

Czas Kod Pogoda Temp. Widoczność Sufit Wiatr METAR/SPECI
23:50
V
23 °C 10 km+ - 070° 070° 3 kt METAR EDLV 122150Z 07003KT 030V120 CAVOK 23/09 Q1017
23:20
V
24 °C 10 km+ - 050° 050° 3 kt METAR EDLV 122120Z 05003KT 020V080 CAVOK 24/09 Q1017
22:50
V
25 °C 10 km+ - 050° 050° 3 kt METAR EDLV 122050Z 05003KT CAVOK 25/09 Q1017
22:20
V
25 °C 10 km+ - 050° 050° 2 kt METAR EDLV 122020Z 05002KT CAVOK 25/08 Q1017
21:50
V
26 °C 10 km+ - 050° 050° 2 kt METAR EDLV 121950Z 05002KT CAVOK 26/08 Q1016
21:20
V
27 °C 10 km+ - 050° 050° 3 kt METAR EDLV 121920Z 05003KT CAVOK 27/08 Q1016
20:50
V
28 °C 10 km+ - 080° 080° 3 kt METAR EDLV 121850Z 08003KT 040V120 CAVOK 28/07 Q1016
20:20
V
29 °C 10 km+ - 090° 090° 4 kt METAR EDLV 121820Z 09004KT 040V170 CAVOK 29/07 Q1016
19:50
V
30 °C 10 km+ - 090° 090° 5 kt METAR EDLV 121750Z 09005KT 040V140 CAVOK 30/07 Q1016
19:20
V
31 °C 10 km+ - 080° 080° 5 kt METAR EDLV 121720Z 08005KT 010V150 CAVOK 31/06 Q1016
18:50
V
31 °C 10 km+ - 110° 110° 9 kt METAR EDLV 121650Z 11009KT 060V140 CAVOK 31/06 Q1016
18:20
V
31 °C 10 km+ - 090° 090° 6 kt METAR EDLV 121620Z 09006KT 030V140 CAVOK 31/06 Q1016
17:50
V
32 °C 10 km+ - 110° 110° 8 kt METAR EDLV 121550Z 11008KT 040V140 CAVOK 32/07 Q1016
17:20
V
31 °C 10 km+ - Var Var 5 kt METAR EDLV 121520Z VRB05KT CAVOK 31/07 Q1016
16:50
V
31 °C 10 km+ - Var Var 6 kt METAR EDLV 121450Z VRB06KT CAVOK 31/07 Q1017
16:20
V
31 °C 10 km+ - 060° 060° 6 kt METAR EDLV 121420Z 06006KT 330V140 CAVOK 31/07 Q1017
15:50
V
31 °C 10 km+ - 090° 090° 7 kt METAR EDLV 121350Z 09007KT 020V150 CAVOK 31/08 Q1017
15:20
V
31 °C 10 km+ - 130° 130° 9 kt METAR EDLV 121320Z 13009KT 090V150 CAVOK 31/08 Q1017
14:50
V
31 °C 10 km+ - Var Var 5 kt METAR EDLV 121250Z VRB05KT CAVOK 31/08 Q1018
14:20
V
31 °C 10 km+ - 050° 050° 6 kt METAR EDLV 121220Z 05006KT 340V110 CAVOK 31/08 Q1018
13:50
V
31 °C 10 km+ - 080° 080° 7 kt METAR EDLV 121150Z 08007KT 020V140 CAVOK 31/08 Q1018
13:20
V
30 °C 10 km+ - 060° 060° 6 kt METAR EDLV 121120Z 06006KT 010V110 CAVOK 30/08 Q1018
12:50
V
30 °C 10 km+ - 090° 090° 7 kt METAR EDLV 121050Z 09007KT 020V150 CAVOK 30/10 Q1019
12:20
V
30 °C 10 km+ - Var Var 5 kt METAR EDLV 121020Z VRB05KT CAVOK 30/10 Q1019
11:50
V
29 °C 10 km+ - 130° 130° 5 kt METAR EDLV 120950Z 13005KT 070V210 CAVOK 29/11 Q1019
11:20
V
29 °C 10 km+ - Var Var 5 kt METAR EDLV 120920Z VRB05KT CAVOK 29/11 Q1019
10:50
V
28 °C 10 km+ - 130° 130° 5 kt METAR EDLV 120850Z 13005KT 080V200 CAVOK 28/10 Q1019
10:20
V
27 °C 10 km+ - 100° 100° 4 kt METAR EDLV 120820Z 10004KT 360V150 CAVOK 27/10 Q1019
09:50
V
26 °C 10 km+ - 100° 100° 4 kt METAR EDLV 120750Z 10004KT 040V140 CAVOK 26/11 Q1019
09:20
V
24 °C 10 km+ - 060° 060° 4 kt METAR EDLV 120720Z 06004KT 010V120 CAVOK 24/12 Q1019
08:50
V
22 °C 10 km+ - Var Var 3 kt METAR EDLV 120650Z VRB03KT CAVOK 22/12 Q1019
08:20
V
20 °C 10 km+ - Var Var 2 kt METAR EDLV 120620Z VRB02KT CAVOK 20/12 Q1019
07:50
V
19 °C 10 km+ - Var 000° 0 kt METAR EDLV 120550Z 00000KT CAVOK 19/12 Q1019
07:20
V
18 °C 10 km+ - Var Var 2 kt METAR EDLV 120520Z VRB02KT CAVOK 18/12 Q1019
06:50
V
18 °C 10 km+ - Var Var 1 kt METAR EDLV 120450Z VRB01KT CAVOK 18/12 Q1019
06:20
V
18 °C 10 km+ - Var Var 2 kt METAR EDLV 120420Z VRB02KT CAVOK 18/12 Q1019
05:50
V
18 °C 10 km+ - 040° 040° 3 kt METAR EDLV 120350Z 04003KT 020V080 CAVOK 18/11 Q1019
05:20
V
19 °C 10 km+ - 030° 030° 3 kt METAR EDLV 120320Z 03003KT CAVOK 19/11 Q1019
04:50
V
19 °C 10 km+ - Var Var 2 kt METAR EDLV 120250Z AUTO VRB02KT 9999 // NCD 19/11 Q1019
04:20
V
19 °C 10 km+ - 020° 020° 3 kt METAR EDLV 120220Z AUTO 02003KT 9999 // NCD 19/11 Q1019
03:50
V
20 °C 10 km+ - 030° 030° 2 kt METAR EDLV 120150Z AUTO 03002KT 9999 // NCD 20/10 Q1019
03:20
V
20 °C 10 km+ - 040° 040° 3 kt METAR EDLV 120120Z AUTO 04003KT 9999 // NCD 20/10 Q1019
02:50
V
21 °C 10 km+ - 030° 030° 3 kt METAR EDLV 120050Z AUTO 03003KT 9999 // NCD 21/10 Q1019
02:20
V
21 °C 10 km+ - 020° 020° 3 kt METAR EDLV 120020Z AUTO 02003KT 9999 // NCD 21/10 Q1019
01:50
V
22 °C 10 km+ - 040° 040° 3 kt METAR EDLV 112350Z AUTO 04003KT 9999 // NCD 22/10 Q1019
01:20
V
22 °C 10 km+ - 040° 040° 3 kt METAR EDLV 112320Z AUTO 04003KT 020V080 9999 // NCD 22/10 Q1019
00:50
V
23 °C 10 km+ - 040° 040° 3 kt METAR EDLV 112250Z AUTO 04003KT 9999 // NCD 23/10 Q1019
00:20
V
23 °C 10 km+ - Var Var 2 kt METAR EDLV 112220Z AUTO VRB02KT 9999 // NCD 23/10 Q1019

11 sierpnia 2022

Czas Kod Pogoda Temp. Widoczność Sufit Wiatr METAR/SPECI
23:50
V
24 °C 10 km+ - 050° 050° 3 kt METAR EDLV 112150Z AUTO 05003KT 360V100 9999 // NCD 24/10 Q1020
23:20
V
24 °C 10 km+ - 050° 050° 3 kt METAR EDLV 112120Z 05003KT 020V110 CAVOK 24/10 Q1020
22:50
V
25 °C 10 km+ - 030° 030° 2 kt METAR EDLV 112050Z 03002KT CAVOK 25/10 Q1019
22:20
V
25 °C 10 km+ - 040° 040° 2 kt METAR EDLV 112020Z 04002KT CAVOK 25/10 Q1019
21:50
V
26 °C 10 km+ - 040° 040° 2 kt METAR EDLV 111950Z 04002KT CAVOK 26/09 Q1019
21:20
V
27 °C 10 km+ - 050° 050° 3 kt METAR EDLV 111920Z 05003KT 020V080 CAVOK 27/09 Q1019
20:50
V
28 °C 10 km+ - 050° 050° 3 kt METAR EDLV 111850Z 05003KT 360V070 CAVOK 28/09 Q1019
20:20
V
29 °C 10 km+ - Var Var 4 kt METAR EDLV 111820Z VRB04KT CAVOK 29/09 Q1019
19:50
V
30 °C 10 km+ - 050° 050° 6 kt METAR EDLV 111750Z 05006KT 020V110 CAVOK 30/08 Q1019
19:20
V
30 °C 10 km+ - 060° 060° 5 kt METAR EDLV 111720Z 06005KT 350V120 CAVOK 30/08 Q1019
18:50
V
31 °C 10 km+ - 060° 060° 5 kt METAR EDLV 111650Z 06005KT 010V160 CAVOK 31/08 Q1019
18:20
V
31 °C 10 km+ - 060° 060° 5 kt METAR EDLV 111620Z 06005KT 350V120 CAVOK 31/09 Q1019
17:50
V
31 °C 10 km+ - 060° 060° 6 kt METAR EDLV 111550Z 06006KT 340V120 CAVOK 31/09 Q1019 ATIS A
17:20
V
31 °C 10 km+ - Var Var 4 kt METAR EDLV 111520Z VRB04KT CAVOK 31/08 Q1020
16:50
V
31 °C 10 km+ - 050° 050° 7 kt METAR EDLV 111450Z 05007KT 350V130 CAVOK 31/08 Q1020
Starsze dane

My i osoby trzecie śledzimy twoje zachowanie w internecie na naszej stronie za pomocą plików cookie. Jeśli kontynuujesz, zakładamy, że zgadzasz się z naszą polityką plików cookie. Dowiedz się więcej